sensor_id;sensor_type;location;lat;lon;timestamp;pressure;altitude;pressure_sealevel;temperature;humidity
61761;BME280;47664;51.660;-0.100;2023-03-19T00:01:43;100268.72;;;8.93;65.71
61761;BME280;47664;51.660;-0.100;2023-03-19T00:04:10;100277.17;;;8.82;64.72
61761;BME280;47664;51.660;-0.100;2023-03-19T00:06:37;100281.04;;;9.34;64.46
61761;BME280;47664;51.660;-0.100;2023-03-19T00:09:04;100282.75;;;9.29;64.70
61761;BME280;47664;51.660;-0.100;2023-03-19T00:11:31;100289.04;;;9.17;65.28
61761;BME280;47664;51.660;-0.100;2023-03-19T00:13:58;100283.91;;;9.25;65.08
61761;BME280;47664;51.660;-0.100;2023-03-19T00:16:25;100284.53;;;9.37;65.54
61761;BME280;47664;51.660;-0.100;2023-03-19T00:18:52;100285.21;;;9.00;66.42
61761;BME280;47664;51.660;-0.100;2023-03-19T00:21:19;100290.64;;;8.92;65.88
61761;BME280;47664;51.660;-0.100;2023-03-19T00:23:46;100295.21;;;9.28;65.40
61761;BME280;47664;51.660;-0.100;2023-03-19T00:26:13;100297.98;;;9.06;65.53
61761;BME280;47664;51.660;-0.100;2023-03-19T00:28:40;100297.75;;;9.07;65.35
61761;BME280;47664;51.660;-0.100;2023-03-19T00:31:09;100299.16;;;8.70;65.13
61761;BME280;47664;51.660;-0.100;2023-03-19T00:33:37;100303.36;;;9.33;64.80
61761;BME280;47664;51.660;-0.100;2023-03-19T00:36:05;100310.32;;;8.80;64.95
61761;BME280;47664;51.660;-0.100;2023-03-19T00:38:33;100310.87;;;8.81;65.99
61761;BME280;47664;51.660;-0.100;2023-03-19T00:41:01;100310.47;;;9.12;65.66
61761;BME280;47664;51.660;-0.100;2023-03-19T00:43:28;100312.05;;;8.36;66.77
61761;BME280;47664;51.660;-0.100;2023-03-19T00:45:55;100314.64;;;9.42;65.96
61761;BME280;47664;51.660;-0.100;2023-03-19T00:48:23;100316.97;;;9.44;65.19
61761;BME280;47664;51.660;-0.100;2023-03-19T00:50:50;100321.68;;;9.49;65.16
61761;BME280;47664;51.660;-0.100;2023-03-19T00:53:17;100324.09;;;9.05;65.78
61761;BME280;47664;51.660;-0.100;2023-03-19T00:55:45;100333.01;;;8.94;66.53
61761;BME280;47664;51.660;-0.100;2023-03-19T00:58:12;100345.74;;;7.70;69.63
61761;BME280;47664;51.660;-0.100;2023-03-19T01:00:39;100354.86;;;8.31;70.62
61761;BME280;47664;51.660;-0.100;2023-03-19T01:03:06;100361.25;;;7.55;70.18
61761;BME280;47664;51.660;-0.100;2023-03-19T01:05:34;100364.03;;;7.91;69.13
61761;BME280;47664;51.660;-0.100;2023-03-19T01:08:01;100361.68;;;7.59;68.42
61761;BME280;47664;51.660;-0.100;2023-03-19T01:10:29;100365.29;;;7.54;68.12
61761;BME280;47664;51.660;-0.100;2023-03-19T01:12:58;100363.95;;;7.81;68.04
61761;BME280;47664;51.660;-0.100;2023-03-19T01:15:25;100368.03;;;7.41;67.63
61761;BME280;47664;51.660;-0.100;2023-03-19T01:17:52;100377.12;;;6.72;69.34
61761;BME280;47664;51.660;-0.100;2023-03-19T01:20:19;100384.77;;;6.81;69.46
61761;BME280;47664;51.660;-0.100;2023-03-19T01:22:47;100392.93;;;6.81;69.46
61761;BME280;47664;51.660;-0.100;2023-03-19T01:25:14;100394.33;;;6.53;68.18
61761;BME280;47664;51.660;-0.100;2023-03-19T01:27:41;100385.30;;;6.89;66.20
61761;BME280;47664;51.660;-0.100;2023-03-19T01:30:09;100378.28;;;6.61;64.81
61761;BME280;47664;51.660;-0.100;2023-03-19T01:32:37;100369.12;;;7.06;64.97
61761;BME280;47664;51.660;-0.100;2023-03-19T01:35:04;100378.89;;;6.59;64.37
61761;BME280;47664;51.660;-0.100;2023-03-19T01:37:32;100378.04;;;7.03;64.18
61761;BME280;47664;51.660;-0.100;2023-03-19T01:39:59;100386.57;;;6.84;64.49
61761;BME280;47664;51.660;-0.100;2023-03-19T01:42:27;100385.80;;;7.24;63.47
61761;BME280;47664;51.660;-0.100;2023-03-19T01:44:54;100394.56;;;6.66;63.13
61761;BME280;47664;51.660;-0.100;2023-03-19T01:47:29;100393.67;;;7.09;62.31
61761;BME280;47664;51.660;-0.100;2023-03-19T01:49:57;100393.60;;;7.40;62.94
61761;BME280;47664;51.660;-0.100;2023-03-19T01:52:28;100394.89;;;7.10;62.95
61761;BME280;47664;51.660;-0.100;2023-03-19T01:54:58;100414.32;;;6.99;64.81
61761;BME280;47664;51.660;-0.100;2023-03-19T01:57:28;100424.41;;;6.38;64.90
61761;BME280;47664;51.660;-0.100;2023-03-19T01:59:59;100431.98;;;6.23;66.13
61761;BME280;47664;51.660;-0.100;2023-03-19T02:02:28;100441.83;;;6.46;65.72
61761;BME280;47664;51.660;-0.100;2023-03-19T02:04:59;100444.38;;;6.60;66.19
61761;BME280;47664;51.660;-0.100;2023-03-19T02:07:28;100432.59;;;7.09;64.14
61761;BME280;47664;51.660;-0.100;2023-03-19T02:09:58;100435.13;;;7.21;64.00
61761;BME280;47664;51.660;-0.100;2023-03-19T02:12:26;100436.90;;;6.99;64.77
61761;BME280;47664;51.660;-0.100;2023-03-19T02:14:54;100440.90;;;7.15;65.53
61761;BME280;47664;51.660;-0.100;2023-03-19T02:17:21;100443.68;;;6.60;66.33
61761;BME280;47664;51.660;-0.100;2023-03-19T02:19:52;100440.42;;;6.70;67.03
61761;BME280;47664;51.660;-0.100;2023-03-19T02:22:26;100440.49;;;6.70;66.77
61761;BME280;47664;51.660;-0.100;2023-03-19T02:24:57;100445.31;;;7.05;66.26
61761;BME280;47664;51.660;-0.100;2023-03-19T02:27:26;100447.97;;;6.59;66.13
61761;BME280;47664;51.660;-0.100;2023-03-19T02:29:53;100452.65;;;7.02;66.61
61761;BME280;47664;51.660;-0.100;2023-03-19T02:32:20;100454.83;;;6.40;67.07
61761;BME280;47664;51.660;-0.100;2023-03-19T02:34:47;100452.44;;;6.57;66.21
61761;BME280;47664;51.660;-0.100;2023-03-19T02:37:19;100449.29;;;7.02;65.47
61761;BME280;47664;51.660;-0.100;2023-03-19T02:39:51;100447.06;;;7.74;64.25
61761;BME280;47664;51.660;-0.100;2023-03-19T02:42:23;100443.62;;;7.33;63.97
61761;BME280;47664;51.660;-0.100;2023-03-19T02:44:53;100447.49;;;7.57;63.13
61761;BME280;47664;51.660;-0.100;2023-03-19T02:47:20;100453.29;;;6.75;63.00
61761;BME280;47664;51.660;-0.100;2023-03-19T02:49:47;100448.42;;;7.33;63.50
61761;BME280;47664;51.660;-0.100;2023-03-19T02:52:15;100447.04;;;7.06;62.69
61761;BME280;47664;51.660;-0.100;2023-03-19T02:54:42;100448.15;;;7.86;62.62
61761;BME280;47664;51.660;-0.100;2023-03-19T02:57:10;100451.70;;;7.93;61.57
61761;BME280;47664;51.660;-0.100;2023-03-19T02:59:36;100445.38;;;8.25;61.99
61761;BME280;47664;51.660;-0.100;2023-03-19T03:02:05;100444.20;;;7.23;62.07
61761;BME280;47664;51.660;-0.100;2023-03-19T03:04:32;100445.21;;;7.60;62.07
61761;BME280;47664;51.660;-0.100;2023-03-19T03:07:01;100452.09;;;7.73;62.89
61761;BME280;47664;51.660;-0.100;2023-03-19T03:09:28;100453.58;;;7.54;64.03
61761;BME280;47664;51.660;-0.100;2023-03-19T03:11:55;100452.39;;;7.27;62.67
61761;BME280;47664;51.660;-0.100;2023-03-19T03:14:22;100453.00;;;7.25;64.23
61761;BME280;47664;51.660;-0.100;2023-03-19T03:16:49;100461.22;;;7.42;64.70
61761;BME280;47664;51.660;-0.100;2023-03-19T03:19:16;100467.67;;;7.03;64.46
61761;BME280;47664;51.660;-0.100;2023-03-19T03:21:44;100473.00;;;6.80;65.33
61761;BME280;47664;51.660;-0.100;2023-03-19T03:24:11;100474.82;;;6.68;66.14
61761;BME280;47664;51.660;-0.100;2023-03-19T03:26:38;100477.31;;;7.26;65.83
61761;BME280;47664;51.660;-0.100;2023-03-19T03:29:06;100473.95;;;6.75;65.71
61761;BME280;47664;51.660;-0.100;2023-03-19T03:31:33;100479.00;;;5.97;66.80
61761;BME280;47664;51.660;-0.100;2023-03-19T03:34:01;100481.87;;;6.59;67.03
61761;BME280;47664;51.660;-0.100;2023-03-19T03:36:28;100486.42;;;6.48;67.42
61761;BME280;47664;51.660;-0.100;2023-03-19T03:38:55;100495.74;;;6.61;66.97
61761;BME280;47664;51.660;-0.100;2023-03-19T03:41:22;100497.90;;;6.11;67.29
61761;BME280;47664;51.660;-0.100;2023-03-19T03:43:49;100498.45;;;6.02;67.92
61761;BME280;47664;51.660;-0.100;2023-03-19T03:46:16;100503.29;;;5.64;68.37
61761;BME280;47664;51.660;-0.100;2023-03-19T03:48:43;100508.83;;;6.46;67.78
61761;BME280;47664;51.660;-0.100;2023-03-19T03:51:10;100511.84;;;6.07;67.11
61761;BME280;47664;51.660;-0.100;2023-03-19T03:53:37;100511.25;;;6.65;65.97
61761;BME280;47664;51.660;-0.100;2023-03-19T03:56:05;100504.14;;;6.12;66.12
61761;BME280;47664;51.660;-0.100;2023-03-19T03:58:33;100508.21;;;6.56;65.75
61761;BME280;47664;51.660;-0.100;2023-03-19T04:01:00;100512.10;;;7.19;65.21
61761;BME280;47664;51.660;-0.100;2023-03-19T04:03:27;100519.66;;;6.54;65.44
61761;BME280;47664;51.660;-0.100;2023-03-19T04:05:55;100521.17;;;6.35;66.11
61761;BME280;47664;51.660;-0.100;2023-03-19T04:08:22;100522.98;;;6.88;65.49
61761;BME280;47664;51.660;-0.100;2023-03-19T04:10:49;100520.49;;;7.23;63.77
61761;BME280;47664;51.660;-0.100;2023-03-19T04:13:17;100520.04;;;6.68;65.34
61761;BME280;47664;51.660;-0.100;2023-03-19T04:15:44;100530.75;;;6.71;65.65
61761;BME280;47664;51.660;-0.100;2023-03-19T04:18:11;100535.18;;;5.80;67.13
61761;BME280;47664;51.660;-0.100;2023-03-19T04:20:38;100539.28;;;6.45;67.51
61761;BME280;47664;51.660;-0.100;2023-03-19T04:23:06;100539.30;;;6.28;67.15
61761;BME280;47664;51.660;-0.100;2023-03-19T04:25:33;100539.87;;;6.02;68.41
61761;BME280;47664;51.660;-0.100;2023-03-19T04:28:00;100543.65;;;5.79;68.90
61761;BME280;47664;51.660;-0.100;2023-03-19T04:30:28;100543.91;;;5.72;68.14
61761;BME280;47664;51.660;-0.100;2023-03-19T04:32:55;100546.46;;;5.84;68.67
61761;BME280;47664;51.660;-0.100;2023-03-19T04:35:22;100548.69;;;5.66;68.04
61761;BME280;47664;51.660;-0.100;2023-03-19T04:37:50;100546.58;;;6.07;67.12
61761;BME280;47664;51.660;-0.100;2023-03-19T04:40:17;100550.80;;;5.77;67.63
61761;BME280;47664;51.660;-0.100;2023-03-19T04:42:44;100560.51;;;5.67;67.23
61761;BME280;47664;51.660;-0.100;2023-03-19T04:45:11;100566.86;;;4.84;67.30
61761;BME280;47664;51.660;-0.100;2023-03-19T04:47:38;100574.21;;;5.22;67.07
61761;BME280;47664;51.660;-0.100;2023-03-19T04:50:07;100584.38;;;5.74;67.84
61761;BME280;47664;51.660;-0.100;2023-03-19T04:52:35;100590.64;;;5.29;68.02
61761;BME280;47664;51.660;-0.100;2023-03-19T04:55:04;100592.99;;;4.94;66.76
61761;BME280;47664;51.660;-0.100;2023-03-19T04:57:31;100598.02;;;5.38;66.84
61761;BME280;47664;51.660;-0.100;2023-03-19T04:59:59;100600.23;;;5.15;67.54
61761;BME280;47664;51.660;-0.100;2023-03-19T05:02:26;100599.46;;;5.06;68.68
61761;BME280;47664;51.660;-0.100;2023-03-19T05:04:53;100601.63;;;4.57;68.16
61761;BME280;47664;51.660;-0.100;2023-03-19T05:07:20;100600.74;;;4.96;68.41
61761;BME280;47664;51.660;-0.100;2023-03-19T05:09:48;100601.28;;;4.62;68.01
61761;BME280;47664;51.660;-0.100;2023-03-19T05:12:15;100602.79;;;4.76;68.55
61761;BME280;47664;51.660;-0.100;2023-03-19T05:14:42;100604.92;;;4.75;68.67
61761;BME280;47664;51.660;-0.100;2023-03-19T05:17:09;100607.46;;;4.76;68.30
61761;BME280;47664;51.660;-0.100;2023-03-19T05:19:37;100612.33;;;4.28;67.73
61761;BME280;47664;51.660;-0.100;2023-03-19T05:22:04;100611.71;;;4.85;67.71
61761;BME280;47664;51.660;-0.100;2023-03-19T05:24:31;100612.92;;;4.29;67.87
61761;BME280;47664;51.660;-0.100;2023-03-19T05:26:59;100613.74;;;4.53;68.49
61761;BME280;47664;51.660;-0.100;2023-03-19T05:29:26;100618.98;;;4.90;66.93
61761;BME280;47664;51.660;-0.100;2023-03-19T05:31:53;100625.03;;;5.38;65.77
61761;BME280;47664;51.660;-0.100;2023-03-19T05:34:20;100630.88;;;5.26;66.16
61761;BME280;47664;51.660;-0.100;2023-03-19T05:36:47;100635.17;;;4.84;66.93
61761;BME280;47664;51.660;-0.100;2023-03-19T05:39:15;100641.71;;;4.41;66.18
61761;BME280;47664;51.660;-0.100;2023-03-19T05:41:42;100642.45;;;4.69;66.40
61761;BME280;47664;51.660;-0.100;2023-03-19T05:44:10;100644.83;;;4.22;66.17
61761;BME280;47664;51.660;-0.100;2023-03-19T05:46:37;100646.77;;;4.92;66.35
61761;BME280;47664;51.660;-0.100;2023-03-19T05:49:05;100646.07;;;5.56;66.30
61761;BME280;47664;51.660;-0.100;2023-03-19T05:51:32;100648.78;;;5.42;65.35
61761;BME280;47664;51.660;-0.100;2023-03-19T05:53:58;100653.35;;;5.29;65.19
61761;BME280;47664;51.660;-0.100;2023-03-19T05:56:25;100657.24;;;4.61;66.15
61761;BME280;47664;51.660;-0.100;2023-03-19T05:58:52;100661.90;;;4.85;67.02
61761;BME280;47664;51.660;-0.100;2023-03-19T06:01:19;100661.37;;;4.76;65.61
61761;BME280;47664;51.660;-0.100;2023-03-19T06:03:47;100659.17;;;4.60;66.63
61761;BME280;47664;51.660;-0.100;2023-03-19T06:06:13;100659.74;;;3.98;66.69
61761;BME280;47664;51.660;-0.100;2023-03-19T06:08:41;100667.93;;;4.55;67.78
61761;BME280;47664;51.660;-0.100;2023-03-19T06:11:08;100672.63;;;4.04;67.82
61761;BME280;47664;51.660;-0.100;2023-03-19T06:13:35;100670.69;;;4.77;66.96
61761;BME280;47664;51.660;-0.100;2023-03-19T06:16:03;100670.54;;;4.56;66.85
61761;BME280;47664;51.660;-0.100;2023-03-19T06:18:30;100671.05;;;4.95;66.95
61761;BME280;47664;51.660;-0.100;2023-03-19T06:20:57;100678.41;;;4.83;67.35
61761;BME280;47664;51.660;-0.100;2023-03-19T06:23:25;100680.62;;;4.54;66.96
61761;BME280;47664;51.660;-0.100;2023-03-19T06:25:51;100685.25;;;4.51;67.34
61761;BME280;47664;51.660;-0.100;2023-03-19T06:28:18;100685.76;;;4.74;66.76
61761;BME280;47664;51.660;-0.100;2023-03-19T06:30:46;100687.19;;;4.92;66.41
61761;BME280;47664;51.660;-0.100;2023-03-19T06:33:13;100698.41;;;4.66;67.12
61761;BME280;47664;51.660;-0.100;2023-03-19T06:35:40;100703.83;;;4.39;67.04
61761;BME280;47664;51.660;-0.100;2023-03-19T06:38:07;100709.44;;;4.36;66.82
61761;BME280;47664;51.660;-0.100;2023-03-19T06:40:34;100708.31;;;4.74;66.36
61761;BME280;47664;51.660;-0.100;2023-03-19T06:43:01;100707.33;;;4.31;67.27
61761;BME280;47664;51.660;-0.100;2023-03-19T06:45:28;100712.19;;;4.24;67.69
61761;BME280;47664;51.660;-0.100;2023-03-19T06:47:55;100720.35;;;4.35;67.32
61761;BME280;47664;51.660;-0.100;2023-03-19T06:50:22;100723.04;;;4.63;67.20
61761;BME280;47664;51.660;-0.100;2023-03-19T06:52:49;100728.16;;;4.52;66.94
61761;BME280;47664;51.660;-0.100;2023-03-19T06:55:17;100732.12;;;4.21;67.62
61761;BME280;47664;51.660;-0.100;2023-03-19T06:57:47;100734.53;;;4.19;67.53
61761;BME280;47664;51.660;-0.100;2023-03-19T07:00:16;100732.93;;;4.38;68.23
61761;BME280;47664;51.660;-0.100;2023-03-19T07:02:44;100734.83;;;4.17;66.71
61761;BME280;47664;51.660;-0.100;2023-03-19T07:05:11;100741.22;;;3.47;67.12
61761;BME280;47664;51.660;-0.100;2023-03-19T07:07:39;100744.79;;;4.30;66.98
61761;BME280;47664;51.660;-0.100;2023-03-19T07:10:07;100746.29;;;4.11;66.62
61761;BME280;47664;51.660;-0.100;2023-03-19T07:12:35;100752.49;;;4.54;66.91
61761;BME280;47664;51.660;-0.100;2023-03-19T07:15:03;100755.96;;;4.41;66.55
61761;BME280;47664;51.660;-0.100;2023-03-19T07:17:31;100765.60;;;4.41;67.80
61761;BME280;47664;51.660;-0.100;2023-03-19T07:19:58;100766.49;;;4.34;68.09
61761;BME280;47664;51.660;-0.100;2023-03-19T07:22:25;100764.40;;;4.22;67.83
61761;BME280;47664;51.660;-0.100;2023-03-19T07:24:53;100766.49;;;4.24;67.89
61761;BME280;47664;51.660;-0.100;2023-03-19T07:27:19;100770.67;;;4.07;68.12
61761;BME280;47664;51.660;-0.100;2023-03-19T07:29:47;100783.44;;;4.68;67.20
61761;BME280;47664;51.660;-0.100;2023-03-19T07:32:14;100786.82;;;4.04;67.20
61761;BME280;47664;51.660;-0.100;2023-03-19T07:34:42;100791.99;;;4.48;67.90
61761;BME280;47664;51.660;-0.100;2023-03-19T07:37:09;100797.96;;;4.17;67.65
61761;BME280;47664;51.660;-0.100;2023-03-19T07:39:36;100796.36;;;4.55;67.16
61761;BME280;47664;51.660;-0.100;2023-03-19T07:42:04;100799.88;;;4.22;66.35
61761;BME280;47664;51.660;-0.100;2023-03-19T07:44:32;100800.80;;;4.38;67.54
61761;BME280;47664;51.660;-0.100;2023-03-19T07:46:59;100805.15;;;4.62;66.30
61761;BME280;47664;51.660;-0.100;2023-03-19T07:49:26;100812.02;;;4.52;65.99
61761;BME280;47664;51.660;-0.100;2023-03-19T07:51:53;100813.45;;;5.14;65.54
61761;BME280;47664;51.660;-0.100;2023-03-19T07:54:20;100809.26;;;5.18;64.19
61761;BME280;47664;51.660;-0.100;2023-03-19T07:56:47;100815.77;;;5.98;61.80
61761;BME280;47664;51.660;-0.100;2023-03-19T07:59:14;100817.34;;;6.06;61.95
61761;BME280;47664;51.660;-0.100;2023-03-19T08:01:41;100818.34;;;5.93;62.46
61761;BME280;47664;51.660;-0.100;2023-03-19T08:04:08;100818.07;;;5.64;62.68
61761;BME280;47664;51.660;-0.100;2023-03-19T08:06:35;100821.54;;;5.45;63.16
61761;BME280;47664;51.660;-0.100;2023-03-19T08:09:02;100825.23;;;5.07;63.70
61761;BME280;47664;51.660;-0.100;2023-03-19T08:11:30;100828.44;;;5.18;64.37
61761;BME280;47664;51.660;-0.100;2023-03-19T08:13:57;100826.46;;;5.20;64.27
61761;BME280;47664;51.660;-0.100;2023-03-19T08:16:24;100832.01;;;4.84;64.81
61761;BME280;47664;51.660;-0.100;2023-03-19T08:18:51;100839.39;;;4.97;64.14
61761;BME280;47664;51.660;-0.100;2023-03-19T08:21:18;100843.79;;;5.35;63.09
61761;BME280;47664;51.660;-0.100;2023-03-19T08:23:50;100844.37;;;5.72;63.34
61761;BME280;47664;51.660;-0.100;2023-03-19T08:26:18;100849.56;;;5.10;62.82
61761;BME280;47664;51.660;-0.100;2023-03-19T08:28:45;100843.62;;;5.60;63.08
61761;BME280;47664;51.660;-0.100;2023-03-19T08:31:13;100844.13;;;5.27;62.36
61761;BME280;47664;51.660;-0.100;2023-03-19T08:33:40;100844.92;;;5.68;61.64
61761;BME280;47664;51.660;-0.100;2023-03-19T08:36:09;100845.94;;;5.56;62.17
61761;BME280;47664;51.660;-0.100;2023-03-19T08:38:36;100854.24;;;5.69;62.56
61761;BME280;47664;51.660;-0.100;2023-03-19T08:41:04;100856.84;;;6.18;61.76
61761;BME280;47664;51.660;-0.100;2023-03-19T08:43:33;100864.40;;;6.05;61.80
61761;BME280;47664;51.660;-0.100;2023-03-19T08:46:02;100867.18;;;5.78;61.27
61761;BME280;47664;51.660;-0.100;2023-03-19T08:48:29;100871.49;;;5.94;61.86
61761;BME280;47664;51.660;-0.100;2023-03-19T08:50:58;100871.73;;;5.83;62.20
61761;BME280;47664;51.660;-0.100;2023-03-19T08:53:26;100875.91;;;5.80;62.53
61761;BME280;47664;51.660;-0.100;2023-03-19T08:55:55;100874.30;;;6.29;61.06
61761;BME280;47664;51.660;-0.100;2023-03-19T08:58:23;100878.81;;;5.98;60.97
61761;BME280;47664;51.660;-0.100;2023-03-19T09:00:51;100884.56;;;6.39;61.09
61761;BME280;47664;51.660;-0.100;2023-03-19T09:03:19;100883.48;;;5.73;60.80
61761;BME280;47664;51.660;-0.100;2023-03-19T09:05:46;100890.83;;;5.55;62.62
61761;BME280;47664;51.660;-0.100;2023-03-19T09:08:13;100895.54;;;5.29;62.41
61761;BME280;47664;51.660;-0.100;2023-03-19T09:10:40;100902.80;;;5.10;63.44
61761;BME280;47664;51.660;-0.100;2023-03-19T09:13:08;100912.71;;;4.50;64.17
61761;BME280;47664;51.660;-0.100;2023-03-19T09:15:35;100912.71;;;5.10;64.07
61761;BME280;47664;51.660;-0.100;2023-03-19T09:18:03;100915.55;;;4.94;64.10
61761;BME280;47664;51.660;-0.100;2023-03-19T09:20:30;100912.98;;;5.96;63.31
61761;BME280;47664;51.660;-0.100;2023-03-19T09:22:57;100907.61;;;6.16;61.99
61761;BME280;47664;51.660;-0.100;2023-03-19T09:25:24;100906.08;;;6.34;60.59
61761;BME280;47664;51.660;-0.100;2023-03-19T09:27:51;100904.16;;;5.96;60.70
61761;BME280;47664;51.660;-0.100;2023-03-19T09:30:18;100902.96;;;5.78;61.66
61761;BME280;47664;51.660;-0.100;2023-03-19T09:32:45;100912.16;;;5.89;61.52
61761;BME280;47664;51.660;-0.100;2023-03-19T09:35:12;100913.82;;;5.38;61.43
61761;BME280;47664;51.660;-0.100;2023-03-19T09:37:39;100919.37;;;6.02;60.80
61761;BME280;47664;51.660;-0.100;2023-03-19T09:40:09;100921.26;;;5.97;61.42
61761;BME280;47664;51.660;-0.100;2023-03-19T09:42:52;100925.70;;;6.92;60.08
61761;BME280;47664;51.660;-0.100;2023-03-19T09:45:22;100927.27;;;6.42;60.09
61761;BME280;47664;51.660;-0.100;2023-03-19T09:47:54;100927.09;;;6.80;58.97
61761;BME280;47664;51.660;-0.100;2023-03-19T09:50:25;100926.93;;;7.54;57.56
61761;BME280;47664;51.660;-0.100;2023-03-19T09:52:57;100934.69;;;7.54;56.59
61761;BME280;47664;51.660;-0.100;2023-03-19T09:55:37;100943.22;;;7.59;57.62
61761;BME280;47664;51.660;-0.100;2023-03-19T09:58:12;100944.86;;;7.02;58.06
61761;BME280;47664;51.660;-0.100;2023-03-19T10:00:41;100944.33;;;7.73;56.78
61761;BME280;47664;51.660;-0.100;2023-03-19T10:03:22;100943.24;;;7.38;58.06
61761;BME280;47664;51.660;-0.100;2023-03-19T10:06:05;100942.42;;;7.25;59.26
61761;BME280;47664;51.660;-0.100;2023-03-19T10:08:48;100944.18;;;6.65;58.61
61761;BME280;47664;51.660;-0.100;2023-03-19T10:11:32;100946.97;;;7.24;57.84
61761;BME280;47664;51.660;-0.100;2023-03-19T10:14:16;100949.72;;;7.06;57.90
61761;BME280;47664;51.660;-0.100;2023-03-19T10:16:50;100953.93;;;6.88;59.20
61761;BME280;47664;51.660;-0.100;2023-03-19T10:19:23;100953.16;;;6.35;58.74
61761;BME280;47664;51.660;-0.100;2023-03-19T10:21:59;100961.69;;;7.19;58.93
61761;BME280;47664;51.660;-0.100;2023-03-19T10:24:33;100962.72;;;6.78;58.75
61761;BME280;47664;51.660;-0.100;2023-03-19T10:27:09;100965.81;;;7.23;59.16
61761;BME280;47664;51.660;-0.100;2023-03-19T10:29:39;100965.01;;;7.30;59.02
61761;BME280;47664;51.660;-0.100;2023-03-19T10:32:13;100965.71;;;6.31;60.07
61761;BME280;47664;51.660;-0.100;2023-03-19T10:34:44;100969.92;;;7.33;58.62
61761;BME280;47664;51.660;-0.100;2023-03-19T10:37:15;100971.63;;;6.55;58.90
61761;BME280;47664;51.660;-0.100;2023-03-19T10:39:43;100964.92;;;8.06;56.12
61761;BME280;47664;51.660;-0.100;2023-03-19T10:42:33;100963.69;;;7.33;55.91
61761;BME280;47664;51.660;-0.100;2023-03-19T10:45:18;100964.90;;;8.20;55.72
61761;BME280;47664;51.660;-0.100;2023-03-19T10:47:47;100965.57;;;7.29;57.46
61761;BME280;47664;51.660;-0.100;2023-03-19T10:50:15;100963.55;;;6.84;58.62
61761;BME280;47664;51.660;-0.100;2023-03-19T10:52:43;100966.64;;;7.34;58.25
61761;BME280;47664;51.660;-0.100;2023-03-19T10:55:14;100970.20;;;7.21;56.19
61761;BME280;47664;51.660;-0.100;2023-03-19T10:57:44;100972.31;;;7.73;56.45
61761;BME280;47664;51.660;-0.100;2023-03-19T11:00:16;100972.57;;;8.49;56.18
61761;BME280;47664;51.660;-0.100;2023-03-19T11:02:46;100973.58;;;8.21;54.97
61761;BME280;47664;51.660;-0.100;2023-03-19T11:05:23;100979.81;;;7.45;55.35
61761;BME280;47664;51.660;-0.100;2023-03-19T11:07:56;100980.33;;;7.18;55.62
61761;BME280;47664;51.660;-0.100;2023-03-19T11:10:25;100984.84;;;7.28;57.42
61761;BME280;47664;51.660;-0.100;2023-03-19T11:12:55;100984.23;;;7.47;58.63
61761;BME280;47664;51.660;-0.100;2023-03-19T11:15:28;100986.47;;;7.15;59.30
61761;BME280;47664;51.660;-0.100;2023-03-19T11:17:57;100987.63;;;7.14;59.25
61761;BME280;47664;51.660;-0.100;2023-03-19T11:20:29;100987.82;;;7.36;59.11
61761;BME280;47664;51.660;-0.100;2023-03-19T11:22:57;100983.93;;;7.84;56.31
61761;BME280;47664;51.660;-0.100;2023-03-19T11:25:28;100981.32;;;7.16;56.20
61761;BME280;47664;51.660;-0.100;2023-03-19T11:27:59;100979.66;;;7.20;57.37
61761;BME280;47664;51.660;-0.100;2023-03-19T11:30:35;100982.06;;;7.39;58.05
61761;BME280;47664;51.660;-0.100;2023-03-19T11:33:13;100991.61;;;7.17;56.54
61761;BME280;47664;51.660;-0.100;2023-03-19T11:35:50;100998.35;;;7.91;53.75
61761;BME280;47664;51.660;-0.100;2023-03-19T11:38:29;100999.04;;;7.74;53.17
61761;BME280;47664;51.660;-0.100;2023-03-19T11:41:10;100997.81;;;7.39;54.84
61761;BME280;47664;51.660;-0.100;2023-03-19T11:43:48;100994.10;;;7.69;55.84
61761;BME280;47664;51.660;-0.100;2023-03-19T11:46:26;100991.46;;;7.20;53.76
61761;BME280;47664;51.660;-0.100;2023-03-19T11:49:15;100998.27;;;7.44;52.81
61761;BME280;47664;51.660;-0.100;2023-03-19T11:51:50;100998.33;;;7.74;53.46
61761;BME280;47664;51.660;-0.100;2023-03-19T11:54:22;101001.19;;;7.80;52.01
61761;BME280;47664;51.660;-0.100;2023-03-19T11:56:58;101001.46;;;7.74;53.77
61761;BME280;47664;51.660;-0.100;2023-03-19T11:59:35;101003.69;;;7.51;53.68
61761;BME280;47664;51.660;-0.100;2023-03-19T12:02:33;101006.63;;;7.36;53.67
61761;BME280;47664;51.660;-0.100;2023-03-19T12:05:15;101013.19;;;7.55;52.98
61761;BME280;47664;51.660;-0.100;2023-03-19T12:07:55;101015.24;;;8.08;52.58
61761;BME280;47664;51.660;-0.100;2023-03-19T12:10:28;101013.79;;;8.28;52.14
61761;BME280;47664;51.660;-0.100;2023-03-19T12:13:08;101012.42;;;8.38;50.48
61761;BME280;47664;51.660;-0.100;2023-03-19T12:15:44;101015.26;;;8.63;52.31
61761;BME280;47664;51.660;-0.100;2023-03-19T12:18:21;101012.32;;;8.03;51.42
61761;BME280;47664;51.660;-0.100;2023-03-19T12:21:03;101014.67;;;8.45;50.70
61761;BME280;47664;51.660;-0.100;2023-03-19T12:23:44;101016.01;;;8.88;50.75
61761;BME280;47664;51.660;-0.100;2023-03-19T12:26:20;101021.68;;;8.55;51.94
61761;BME280;47664;51.660;-0.100;2023-03-19T12:28:53;101019.51;;;7.77;52.20
61761;BME280;47664;51.660;-0.100;2023-03-19T12:31:49;101019.37;;;7.95;51.36
61761;BME280;47664;51.660;-0.100;2023-03-19T12:58:49;101027.38;;;8.16;53.82
61761;BME280;47664;51.660;-0.100;2023-03-19T13:03:36;101021.89;;;8.18;51.98
61761;BME280;47664;51.660;-0.100;2023-03-19T13:06:19;101019.07;;;7.29;51.06
61761;BME280;47664;51.660;-0.100;2023-03-19T13:08:52;101020.41;;;7.97;49.93
61761;BME280;47664;51.660;-0.100;2023-03-19T17:14:50;101110.59;;;9.16;42.56
61761;BME280;47664;51.660;-0.100;2023-03-19T17:17:19;101123.25;;;8.82;43.11
61761;BME280;47664;51.660;-0.100;2023-03-19T17:29:46;101145.01;;;9.93;46.12
61761;BME280;47664;51.660;-0.100;2023-03-19T17:32:16;101143.91;;;9.09;45.66
61761;BME280;47664;51.660;-0.100;2023-03-19T17:34:44;101143.31;;;9.52;45.89
61761;BME280;47664;51.660;-0.100;2023-03-19T17:37:40;101147.09;;;8.67;45.91
61761;BME280;47664;51.660;-0.100;2023-03-19T17:40:15;101149.37;;;9.86;45.25
61761;BME280;47664;51.660;-0.100;2023-03-19T17:43:07;101155.26;;;8.58;46.53